createdAt,value
2022-09-27T00:01:13.625Z,96243.94
2022-09-27T00:03:41.179Z,96237.63
2022-09-27T00:06:20.920Z,96234.28
2022-09-27T00:08:47.625Z,96234.78
2022-09-27T00:11:35.600Z,96225.16
2022-09-27T00:14:02.792Z,96213.22
2022-09-27T00:16:31.845Z,96207.31
2022-09-27T00:19:00.332Z,96199.09
2022-09-27T00:21:27.197Z,96190.06
2022-09-27T00:23:54.237Z,96184.38
2022-09-27T00:26:21.102Z,96189.75
2022-09-27T00:28:47.700Z,96188.22
2022-09-27T00:31:29.820Z,96191.78
2022-09-27T00:33:59.085Z,96192.72
2022-09-27T00:36:27.621Z,96184.00
2022-09-27T00:38:55.340Z,96179.00
2022-09-27T00:41:26.145Z,96175.78
2022-09-27T00:43:55.399Z,96181.47
2022-09-27T00:46:31.746Z,96178.72
2022-09-27T00:49:17.565Z,96180.97
2022-09-27T00:51:48.134Z,96178.84
2022-09-27T00:54:17.343Z,96177.50
2022-09-27T00:56:45.418Z,96172.94
2022-09-27T00:59:19.501Z,96173.66
2022-09-27T01:01:46.534Z,96165.16
2022-09-27T01:04:18.307Z,96166.66
2022-09-27T01:06:45.451Z,96161.47
2022-09-27T01:09:12.904Z,96163.50
2022-09-27T01:11:57.920Z,96161.56
2022-09-27T01:15:13.870Z,96157.50
2022-09-27T01:18:11.270Z,96144.53
2022-09-27T01:21:15.589Z,96145.22
2022-09-27T01:24:00.377Z,96142.78
2022-09-27T01:27:12.880Z,96138.63
2022-09-27T01:30:20.631Z,96139.13
2022-09-27T01:32:56.437Z,96131.91
2022-09-27T01:36:06.303Z,96117.16
2022-09-27T01:39:10.248Z,96115.72
2022-09-27T01:41:53.659Z,96117.28
2022-09-27T01:44:41.498Z,96116.44
2022-09-27T01:47:15.305Z,96105.38
2022-09-27T01:49:53.184Z,96106.69
2022-09-27T01:52:27.718Z,96097.16
2022-09-27T01:54:58.867Z,96090.88
2022-09-27T01:57:31.401Z,96093.72
2022-09-27T02:00:05.828Z,96092.41
2022-09-27T02:02:36.699Z,96093.13
2022-09-27T02:05:07.290Z,96088.34
2022-09-27T02:07:44.638Z,96085.59
2022-09-27T02:10:18.179Z,96071.22
2022-09-27T02:12:57.478Z,96065.97
2022-09-27T02:15:27.019Z,96060.00
2022-09-27T02:18:13.767Z,96048.31
2022-09-27T02:20:43.571Z,96046.38
2022-09-27T02:23:55.861Z,96039.75
2022-09-27T02:26:36.087Z,96040.88
2022-09-27T02:29:17.410Z,96042.38
2022-09-27T02:31:44.307Z,96031.31
2022-09-27T02:34:24.045Z,96029.28
2022-09-27T02:36:53.530Z,96017.03
2022-09-27T02:39:21.005Z,96019.38
2022-09-27T02:41:47.845Z,96011.84
2022-09-27T02:44:17.275Z,96010.56
2022-09-27T02:47:38.439Z,96013.28
2022-09-27T02:50:40.047Z,96008.41
2022-09-27T02:53:18.086Z,96008.53
2022-09-27T02:56:31.705Z,96000.91
2022-09-27T02:59:28.661Z,96015.09
2022-09-27T03:02:15.996Z,96002.84
2022-09-27T03:04:54.340Z,96001.19
2022-09-27T03:07:22.294Z,95993.91
2022-09-27T03:09:54.035Z,96014.59
2022-09-27T03:12:25.972Z,96005.66
2022-09-27T03:15:01.528Z,96006.78
2022-09-27T03:17:28.245Z,96005.06
2022-09-27T03:19:56.416Z,96006.44
2022-09-27T03:22:23.130Z,96004.59
2022-09-27T03:24:49.830Z,95996.91
2022-09-27T03:27:16.551Z,95996.78
2022-09-27T03:29:43.188Z,95987.97
2022-09-27T03:32:10.289Z,95985.25
2022-09-27T03:34:37.013Z,95972.69
2022-09-27T03:37:03.701Z,95970.78
2022-09-27T03:39:30.559Z,95972.19
2022-09-27T03:41:57.546Z,95967.53
2022-09-27T03:44:24.278Z,95963.34
2022-09-27T03:46:50.977Z,95951.59
2022-09-27T03:49:17.648Z,95950.09
2022-09-27T03:51:44.361Z,95946.53
2022-09-27T03:54:11.118Z,95947.84
2022-09-27T03:56:37.990Z,95943.69
2022-09-27T03:59:04.700Z,95929.28
2022-09-27T04:01:31.474Z,95923.72
2022-09-27T04:03:58.305Z,95919.06
2022-09-27T04:06:27.085Z,95910.63
2022-09-27T04:08:54.202Z,95908.50
2022-09-27T04:11:21.590Z,95910.84
2022-09-27T04:13:49.226Z,95905.47
2022-09-27T04:16:16.619Z,95911.56
2022-09-27T04:18:43.741Z,95917.75
2022-09-27T04:21:10.617Z,95917.75
2022-09-27T04:23:37.318Z,95919.66
2022-09-27T04:26:04.138Z,95914.09
2022-09-27T04:28:31.852Z,95913.28
2022-09-27T04:30:58.606Z,95914.81
2022-09-27T04:33:25.412Z,95921.47
2022-09-27T04:36:10.405Z,95920.78
2022-09-27T04:38:37.012Z,95908.31
2022-09-27T04:41:03.805Z,95908.91
2022-09-27T04:43:30.818Z,95916.00
2022-09-27T04:45:57.570Z,95918.84
2022-09-27T04:48:24.607Z,95919.56
2022-09-27T04:50:58.896Z,95920.06
2022-09-27T04:53:25.983Z,95921.38
2022-09-27T04:55:54.500Z,95926.75
2022-09-27T04:58:22.277Z,95929.28
2022-09-27T05:00:51.754Z,95926.44
2022-09-27T05:03:19.458Z,95928.84
2022-09-27T05:05:46.181Z,95926.00
2022-09-27T05:08:12.965Z,95924.69
2022-09-27T05:10:39.587Z,95920.75
2022-09-27T05:13:06.621Z,95915.28
2022-09-27T05:15:34.443Z,95918.59
2022-09-27T05:18:01.130Z,95915.28
2022-09-27T05:20:28.053Z,95920.75
2022-09-27T05:22:54.778Z,95914.78
2022-09-27T05:25:21.421Z,95927.84
2022-09-27T05:27:49.402Z,95926.94
2022-09-27T05:30:16.132Z,95922.78
2022-09-27T05:32:48.857Z,95933.22
2022-09-27T05:35:17.274Z,95940.50
2022-09-27T05:37:43.963Z,95936.97
2022-09-27T05:40:29.317Z,95941.09
2022-09-27T05:42:57.687Z,95946.69
2022-09-27T05:45:25.382Z,95963.81
2022-09-27T05:47:54.126Z,95979.72
2022-09-27T05:50:20.819Z,95990.47
2022-09-27T05:52:48.201Z,96001.69
2022-09-27T05:55:15.454Z,96018.13
2022-09-27T05:57:42.170Z,96022.72
2022-09-27T06:00:10.521Z,96028.97
2022-09-27T06:02:37.288Z,96037.75
2022-09-27T06:05:04.161Z,96036.81
2022-09-27T06:07:32.163Z,96050.25
2022-09-27T06:09:58.848Z,96050.75
2022-09-27T06:12:25.486Z,96054.88
2022-09-27T06:14:52.124Z,96064.03
2022-09-27T06:17:18.778Z,96069.38
2022-09-27T06:19:47.694Z,96073.75
2022-09-27T06:22:14.530Z,96071.16
2022-09-27T06:24:41.751Z,96074.72
2022-09-27T06:27:08.475Z,96065.69
2022-09-27T06:29:35.273Z,96064.97
2022-09-27T06:32:02.387Z,96057.34
2022-09-27T06:34:29.026Z,96065.31
2022-09-27T06:36:57.234Z,96066.00
2022-09-27T06:39:23.889Z,96068.25
2022-09-27T06:41:56.483Z,96065.81
2022-09-27T06:44:24.421Z,96072.34
2022-09-27T06:46:52.962Z,96075.22
2022-09-27T06:49:20.167Z,96079.09
2022-09-27T06:51:46.815Z,96079.31
2022-09-27T06:54:13.450Z,96079.34
2022-09-27T06:56:40.411Z,96072.13
2022-09-27T06:59:25.357Z,96067.28
2022-09-27T07:01:52.916Z,96069.25
2022-09-27T07:04:19.749Z,96073.34
2022-09-27T07:06:46.456Z,96066.88
2022-09-27T07:09:13.237Z,96051.19
2022-09-27T07:11:40.255Z,96046.59
2022-09-27T07:14:08.177Z,96039.31
2022-09-27T07:16:34.991Z,96042.97
2022-09-27T07:19:02.193Z,96045.13
2022-09-27T07:21:28.903Z,96048.56
2022-09-27T07:23:55.628Z,96054.84
2022-09-27T07:26:22.824Z,96056.34
2022-09-27T07:28:49.535Z,96059.66
2022-09-27T07:31:17.279Z,96060.97
2022-09-27T07:33:44.086Z,96053.97
2022-09-27T07:36:12.064Z,96051.84
2022-09-27T07:38:38.784Z,96045.50
2022-09-27T07:41:07.328Z,96052.72
2022-09-27T07:43:34.290Z,96049.97
2022-09-27T07:46:01.057Z,96053.91
2022-09-27T07:48:28.322Z,96051.41
2022-09-27T07:50:55.008Z,96047.25
2022-09-27T07:53:21.728Z,96048.19
2022-09-27T07:55:53.245Z,96044.50
2022-09-27T07:58:20.995Z,96051.50
2022-09-27T08:00:47.836Z,96054.38
2022-09-27T08:03:16.255Z,96047.78
2022-09-27T08:05:47.457Z,96054.91
2022-09-27T08:08:16.458Z,96055.72
2022-09-27T08:10:44.441Z,96066.09
2022-09-27T08:13:11.780Z,96070.69
2022-09-27T08:15:41.589Z,96065.81
2022-09-27T08:18:09.611Z,96067.81
2022-09-27T08:20:36.395Z,96065.91
2022-09-27T08:23:04.338Z,96070.88
2022-09-27T08:25:31.258Z,96071.50
2022-09-27T08:27:59.810Z,96064.81
2022-09-27T08:30:27.639Z,96063.94
2022-09-27T08:32:58.377Z,96061.09
2022-09-27T08:35:25.478Z,96065.97
2022-09-27T08:37:57.293Z,96072.47
2022-09-27T08:40:31.672Z,96069.53
2022-09-27T08:44:00.608Z,96082.63
2022-09-27T08:47:14.067Z,96087.72
2022-09-27T08:49:49.361Z,96089.44
2022-09-27T08:52:27.567Z,96088.63
2022-09-27T08:54:58.493Z,96087.91
2022-09-27T08:57:26.156Z,96090.22
2022-09-27T09:00:07.546Z,96085.03
2022-09-27T09:02:36.375Z,96087.28
2022-09-27T09:05:14.354Z,96091.34
2022-09-27T09:07:54.493Z,96090.72
2022-09-27T09:11:21.249Z,96087.28
2022-09-27T09:14:23.816Z,96087.19
2022-09-27T09:17:22.579Z,96096.44
2022-09-27T09:20:17.640Z,96093.97
2022-09-27T09:23:03.265Z,96089.88
2022-09-27T09:25:57.793Z,96092.75
2022-09-27T09:29:02.074Z,96089.50
2022-09-27T09:31:43.918Z,96095.06
2022-09-27T09:34:27.082Z,96096.09
2022-09-27T09:37:08.677Z,96083.63
2022-09-27T09:39:47.311Z,96083.50
2022-09-27T09:42:18.647Z,96085.13
2022-09-27T09:45:20.322Z,96094.81
2022-09-27T09:48:20.935Z,96095.31
2022-09-27T09:50:51.215Z,96099.56
2022-09-27T09:54:01.959Z,96101.28
2022-09-27T09:56:33.079Z,96095.69
2022-09-27T09:59:05.067Z,96087.13
2022-09-27T10:01:40.714Z,96090.16
2022-09-27T10:04:07.540Z,96084.16
2022-09-27T10:06:34.304Z,96085.53
2022-09-27T10:09:01.055Z,96079.84
2022-09-27T10:11:37.035Z,96092.63
2022-09-27T10:14:03.757Z,96077.97
2022-09-27T10:16:30.638Z,96087.28
2022-09-27T10:19:02.336Z,96079.69
2022-09-27T10:21:30.446Z,96075.06
2022-09-27T10:24:25.574Z,96078.13
2022-09-27T10:26:59.501Z,96070.47
2022-09-27T10:29:36.998Z,96073.66
2022-09-27T10:32:18.648Z,96073.88
2022-09-27T10:34:45.567Z,96075.47
2022-09-27T10:37:18.698Z,96080.22
2022-09-27T10:39:47.654Z,96075.25
2022-09-27T10:42:38.681Z,96084.66
2022-09-27T10:45:34.909Z,96085.59
2022-09-27T10:48:02.423Z,96086.34
2022-09-27T10:50:49.592Z,96094.19
2022-09-27T10:53:20.587Z,96093.47
2022-09-27T10:55:50.119Z,96097.81
2022-09-27T10:58:27.918Z,96099.91
2022-09-27T11:01:09.634Z,96093.59
2022-09-27T11:03:49.469Z,96087.94
2022-09-27T11:06:45.335Z,96093.44
2022-09-27T11:09:30.292Z,96090.63
2022-09-27T11:12:10.361Z,96084.94
2022-09-27T11:14:37.294Z,96091.78
2022-09-27T11:17:46.917Z,96095.13
2022-09-27T11:20:32.475Z,96105.00
2022-09-27T11:23:43.668Z,96113.56
2022-09-27T11:26:37.454Z,96138.97
2022-09-27T11:30:08.612Z,96126.81
2022-09-27T11:33:07.395Z,96129.53
2022-09-27T11:36:01.005Z,96144.00
2022-09-27T11:41:58.440Z,96117.81
2022-09-27T11:47:38.391Z,96109.94
2022-09-27T11:56:48.848Z,96134.09
2022-09-27T12:00:02.702Z,96127.19
2022-09-27T12:02:52.743Z,96134.72
2022-09-27T12:06:13.511Z,96125.69
2022-09-27T12:09:08.590Z,96128.50
2022-09-27T12:11:50.516Z,96129.22
2022-09-27T12:14:41.047Z,96122.63
2022-09-27T12:17:16.354Z,96118.19
2022-09-27T12:19:50.865Z,96122.03
2022-09-27T12:22:46.723Z,96136.03
2022-09-27T12:25:20.829Z,96130.44
2022-09-27T12:27:58.155Z,96134.78
2022-09-27T12:30:24.861Z,96141.41
2022-09-27T12:33:23.378Z,96126.59
2022-09-27T12:35:54.163Z,96126.81
2022-09-27T12:38:35.905Z,96128.09
2022-09-27T12:41:06.014Z,96132.28
2022-09-27T12:43:32.765Z,96124.97
2022-09-27T12:46:34.940Z,96122.53
2022-09-27T12:49:26.770Z,96132.47
2022-09-27T12:52:03.856Z,96130.06
2022-09-27T12:55:00.775Z,96133.31
2022-09-27T12:58:11.407Z,96129.94
2022-09-27T13:01:09.259Z,96128.41
2022-09-27T13:03:56.010Z,96127.69
2022-09-27T13:06:58.608Z,96134.72
2022-09-27T13:10:00.229Z,96125.03
2022-09-27T13:12:29.454Z,96126.25
2022-09-27T13:15:17.406Z,96128.09
2022-09-27T13:17:56.392Z,96129.22
2022-09-27T13:23:53.081Z,96113.16
2022-09-27T13:35:24.396Z,96127.97
2022-09-27T13:37:59.083Z,96128.97
2022-09-27T13:40:30.976Z,96136.69
2022-09-27T13:43:17.676Z,96141.69
2022-09-27T13:45:57.334Z,96140.47
2022-09-27T13:48:55.726Z,96126.06
2022-09-27T13:51:56.762Z,96130.97
2022-09-27T13:54:55.600Z,96132.28
2022-09-27T13:57:56.786Z,96142.13
2022-09-27T14:00:32.818Z,96141.94
2022-09-27T14:03:46.051Z,96142.53
2022-09-27T14:06:20.433Z,96143.66
2022-09-27T14:08:53.433Z,96162.03
2022-09-27T14:11:33.654Z,96154.09
2022-09-27T14:14:02.250Z,96152.44
2022-09-27T14:16:34.154Z,96165.66
2022-09-27T14:19:02.583Z,96155.91
2022-09-27T14:21:37.763Z,96157.00
2022-09-27T14:24:42.504Z,96161.78
2022-09-27T14:27:38.764Z,96158.34
2022-09-27T14:30:15.578Z,96159.38
2022-09-27T14:32:54.950Z,96166.75
2022-09-27T14:35:46.844Z,96165.22
2022-09-27T14:38:36.759Z,96167.34
2022-09-27T14:41:06.745Z,96162.91
2022-09-27T14:43:35.728Z,96150.41
2022-09-27T14:46:07.076Z,96157.72
2022-09-27T14:48:39.054Z,96158.75
2022-09-27T14:51:20.951Z,96154.59
2022-09-27T14:54:01.120Z,96159.78
2022-09-27T14:56:33.953Z,96168.19
2022-09-27T14:59:11.424Z,96174.41
2022-09-27T15:01:40.072Z,96164.97
2022-09-27T15:04:13.553Z,96163.75
2022-09-27T15:06:40.986Z,96163.75
2022-09-27T15:09:10.307Z,96169.75
2022-09-27T15:11:39.553Z,96167.00
2022-09-27T15:14:07.719Z,96171.28
2022-09-27T15:16:34.622Z,96175.53
2022-09-27T15:19:22.315Z,96183.25
2022-09-27T15:21:50.074Z,96180.09
2022-09-27T15:24:36.388Z,96183.06
2022-09-27T15:27:03.505Z,96188.63
2022-09-27T15:29:30.127Z,96189.00
2022-09-27T15:32:03.502Z,96187.50
2022-09-27T15:34:32.849Z,96183.94
2022-09-27T15:37:03.521Z,96193.84
2022-09-27T15:39:38.172Z,96207.22
2022-09-27T15:42:19.547Z,96207.06
2022-09-27T15:44:52.095Z,96205.78
2022-09-27T15:47:54.055Z,96194.13
2022-09-27T15:50:33.425Z,96205.47
2022-09-27T15:53:02.853Z,96204.63
2022-09-27T15:55:32.384Z,96208.44
2022-09-27T15:58:20.361Z,96220.28
2022-09-27T16:01:05.800Z,96223.78
2022-09-27T16:03:33.244Z,96224.13
2022-09-27T16:06:02.212Z,96226.66
2022-09-27T16:08:33.330Z,96222.59
2022-09-27T16:11:03.349Z,96230.22
2022-09-27T16:13:32.927Z,96239.38
2022-09-27T16:16:01.977Z,96245.34
2022-09-27T16:18:30.770Z,96240.47
2022-09-27T16:20:58.889Z,96241.41
2022-09-27T16:23:25.934Z,96244.50
2022-09-27T16:25:53.656Z,96241.41
2022-09-27T16:28:20.562Z,96247.16
2022-09-27T16:30:48.126Z,96246.06
2022-09-27T16:33:15.233Z,96246.91
2022-09-27T16:35:41.784Z,96248.34
2022-09-27T16:38:08.480Z,96245.38
2022-09-27T16:40:36.614Z,96247.41
2022-09-27T16:43:07.081Z,96253.69
2022-09-27T16:45:36.452Z,96243.44
2022-09-27T16:48:03.564Z,96253.09
2022-09-27T16:50:48.759Z,96238.94
2022-09-27T16:53:15.501Z,96249.16
2022-09-27T16:55:42.296Z,96241.56
2022-09-27T16:58:08.949Z,96238.38
2022-09-27T17:00:35.879Z,96236.34
2022-09-27T17:03:02.632Z,96242.19
2022-09-27T17:05:29.290Z,96237.31
2022-09-27T17:07:55.997Z,96236.00
2022-09-27T17:10:23.227Z,96240.41
2022-09-27T17:12:50.253Z,96237.81
2022-09-27T17:15:17.834Z,96230.88
2022-09-27T17:17:45.361Z,96237.06
2022-09-27T17:20:12.705Z,96226.59
2022-09-27T17:22:39.247Z,96223.88
2022-09-27T17:25:06.287Z,96232.34
2022-09-27T17:27:32.883Z,96231.84
2022-09-27T17:29:59.607Z,96222.34
2022-09-27T17:32:26.457Z,96228.88
2022-09-27T17:34:53.310Z,96231.97
2022-09-27T17:37:19.963Z,96230.19
2022-09-27T17:39:46.543Z,96235.28
2022-09-27T17:42:13.266Z,96239.19
2022-09-27T17:44:40.126Z,96239.66
2022-09-27T17:47:25.350Z,96242.63
2022-09-27T17:50:10.631Z,96233.44
2022-09-27T17:52:37.550Z,96249.25
2022-09-27T17:55:04.790Z,96245.81
2022-09-27T17:57:31.858Z,96240.81
2022-09-27T17:59:58.487Z,96242.13
2022-09-27T18:02:25.656Z,96237.59
2022-09-27T18:04:52.489Z,96240.31
2022-09-27T18:07:19.867Z,96243.28
2022-09-27T18:09:46.630Z,96235.81
2022-09-27T18:12:13.761Z,96246.59
2022-09-27T18:14:40.447Z,96239.59
2022-09-27T18:17:07.152Z,96246.94
2022-09-27T18:19:33.959Z,96247.09
2022-09-27T18:22:00.872Z,96247.91
2022-09-27T18:24:27.580Z,96250.41
2022-09-27T18:26:55.818Z,96242.81
2022-09-27T18:29:23.146Z,96249.47
2022-09-27T18:31:49.980Z,96251.34
2022-09-27T18:34:20.023Z,96248.59
2022-09-27T18:36:46.875Z,96241.34
2022-09-27T18:39:17.541Z,96253.72
2022-09-27T18:41:45.328Z,96253.25
2022-09-27T18:44:13.956Z,96252.78
2022-09-27T18:46:40.658Z,96253.31
2022-09-27T18:49:10.776Z,96251.88
2022-09-27T18:51:41.984Z,96264.63
2022-09-27T18:54:14.336Z,96272.34
2022-09-27T18:56:41.510Z,96269.84
2022-09-27T18:59:09.964Z,96274.00
2022-09-27T19:01:39.752Z,96273.53
2022-09-27T19:04:09.026Z,96272.69
2022-09-27T19:06:37.094Z,96273.06
2022-09-27T19:09:05.039Z,96280.31
2022-09-27T19:11:31.678Z,96281.34
2022-09-27T19:13:58.965Z,96286.50
2022-09-27T19:16:27.179Z,96293.84
2022-09-27T19:18:54.555Z,96290.88
2022-09-27T19:21:27.151Z,96304.66
2022-09-27T19:23:53.933Z,96299.19
2022-09-27T19:26:22.771Z,96312.13
2022-09-27T19:28:50.418Z,96303.69
2022-09-27T19:31:20.382Z,96307.72
2022-09-27T19:33:47.593Z,96322.91
2022-09-27T19:36:16.894Z,96325.34
2022-09-27T19:38:44.123Z,96327.00
2022-09-27T19:41:13.395Z,96327.97
2022-09-27T19:43:40.852Z,96344.22
2022-09-27T19:46:15.176Z,96364.19
2022-09-27T19:48:43.558Z,96362.34
2022-09-27T19:51:15.143Z,96374.25
2022-09-27T19:53:41.976Z,96363.31
2022-09-27T19:56:10.326Z,96355.84
2022-09-27T19:58:39.472Z,96366.00
2022-09-27T20:01:07.640Z,96360.88
2022-09-27T20:03:36.434Z,96370.72
2022-09-27T20:06:06.973Z,96366.13
2022-09-27T20:08:33.947Z,96377.66
2022-09-27T20:11:20.504Z,96354.28
2022-09-27T20:13:48.078Z,96345.84
2022-09-27T20:16:20.612Z,96346.09
2022-09-27T20:18:48.412Z,96346.25
2022-09-27T20:21:16.700Z,96349.50
2022-09-27T20:23:43.681Z,96350.38
2022-09-27T20:26:14.776Z,96340.44
2022-09-27T20:28:43.925Z,96337.53
2022-09-27T20:31:12.606Z,96338.84
2022-09-27T20:33:42.275Z,96332.63
2022-09-27T20:36:14.085Z,96327.44
2022-09-27T20:38:42.121Z,96332.44
2022-09-27T20:41:10.096Z,96344.06
2022-09-27T20:43:37.438Z,96347.38
2022-09-27T20:46:11.126Z,96345.22
2022-09-27T20:48:38.476Z,96337.03
2022-09-27T20:51:06.517Z,96339.19
2022-09-27T20:53:34.050Z,96339.59
2022-09-27T20:56:04.707Z,96339.06
2022-09-27T20:58:32.493Z,96331.97
2022-09-27T21:01:05.950Z,96318.84
2022-09-27T21:03:32.729Z,96317.94
2022-09-27T21:05:59.559Z,96324.97
2022-09-27T21:08:30.148Z,96326.09
2022-09-27T21:11:04.557Z,96325.44
2022-09-27T21:13:31.102Z,96321.84
2022-09-27T21:16:03.112Z,96323.41
2022-09-27T21:18:30.338Z,96333.16
2022-09-27T21:21:01.532Z,96332.13
2022-09-27T21:23:32.199Z,96328.38
2022-09-27T21:26:04.762Z,96329.84
2022-09-27T21:28:32.030Z,96332.84
2022-09-27T21:31:01.804Z,96332.13
2022-09-27T21:33:28.490Z,96338.19
2022-09-27T21:35:55.042Z,96339.59
2022-09-27T21:38:21.886Z,96334.84
2022-09-27T21:40:55.944Z,96343.22
2022-09-27T21:43:34.169Z,96341.66
2022-09-27T21:46:02.601Z,96345.56
2022-09-27T21:48:30.829Z,96341.94
2022-09-27T21:51:25.167Z,96332.63
2022-09-27T21:53:57.092Z,96331.91
2022-09-27T21:56:25.925Z,96330.75
2022-09-27T21:58:52.785Z,96331.59
2022-09-27T22:01:24.696Z,96318.81
2022-09-27T22:03:52.694Z,96319.78
2022-09-27T22:06:21.219Z,96320.94
2022-09-27T22:08:49.018Z,96316.59
2022-09-27T22:11:18.663Z,96310.16
2022-09-27T22:13:45.765Z,96323.53
2022-09-27T22:16:14.910Z,96322.50
2022-09-27T22:18:46.475Z,96304.38
2022-09-27T22:21:16.230Z,96305.63
2022-09-27T22:23:43.062Z,96301.31
2022-09-27T22:26:29.026Z,96298.34
2022-09-27T22:28:56.220Z,96295.59
2022-09-27T22:31:23.450Z,96290.41
2022-09-27T22:33:52.270Z,96295.72
2022-09-27T22:36:19.076Z,96282.78
2022-09-27T22:38:45.668Z,96278.19
2022-09-27T22:41:12.389Z,96274.59
2022-09-27T22:43:39.964Z,96274.84
2022-09-27T22:46:07.082Z,96274.28
2022-09-27T22:48:34.326Z,96272.13
2022-09-27T22:51:01.310Z,96272.13
2022-09-27T22:53:29.327Z,96270.84
2022-09-27T22:56:07.590Z,96266.53
2022-09-27T22:58:36.262Z,96268.09
2022-09-27T23:01:24.671Z,96267.50
2022-09-27T23:03:52.969Z,96276.78
2022-09-27T23:06:21.265Z,96287.56
2022-09-27T23:08:48.352Z,96289.34
2022-09-27T23:11:19.837Z,96288.03
2022-09-27T23:13:48.109Z,96285.16
2022-09-27T23:16:17.269Z,96276.06
2022-09-27T23:18:44.435Z,96284.34
2022-09-27T23:21:13.034Z,96279.75
2022-09-27T23:23:42.103Z,96276.56
2022-09-27T23:26:11.583Z,96276.38
2022-09-27T23:28:38.815Z,96277.31
2022-09-27T23:31:08.145Z,96265.94
2022-09-27T23:33:36.842Z,96267.97
2022-09-27T23:36:04.846Z,96263.81
2022-09-27T23:38:32.692Z,96262.03
2022-09-27T23:41:00.262Z,96263.56
2022-09-27T23:43:27.387Z,96261.53
2022-09-27T23:45:56.047Z,96249.22
2022-09-27T23:48:24.565Z,96263.09
2022-09-27T23:50:52.106Z,96264.91
2022-09-27T23:53:20.356Z,96263.56
2022-09-27T23:55:48.558Z,96271.88
2022-09-27T23:58:15.883Z,96268.88
